createdAt,value
2022-11-16T00:00:18.645Z,24.08
2022-11-16T00:00:48.646Z,24.10
2022-11-16T00:01:18.642Z,24.15
2022-11-16T00:01:48.709Z,24.15
2022-11-16T00:02:18.756Z,24.18
2022-11-16T00:02:48.762Z,24.15
2022-11-16T00:03:18.761Z,24.15
2022-11-16T00:03:48.757Z,24.15
2022-11-16T00:04:18.733Z,24.13
2022-11-16T00:04:48.703Z,24.13
2022-11-16T00:05:18.666Z,24.13
2022-11-16T00:05:48.632Z,24.13
2022-11-16T00:06:18.615Z,24.13
2022-11-16T00:06:48.602Z,24.15
2022-11-16T00:07:18.653Z,24.16
2022-11-16T00:07:48.713Z,24.15
2022-11-16T00:08:18.765Z,24.16
2022-11-16T00:08:48.758Z,24.16
2022-11-16T00:09:18.732Z,24.19
2022-11-16T00:09:48.704Z,24.16
2022-11-16T00:10:18.677Z,24.18
2022-11-16T00:10:48.652Z,24.18
2022-11-16T00:11:18.629Z,24.15
2022-11-16T00:11:48.595Z,24.15
2022-11-16T00:12:18.578Z,24.16
2022-11-16T00:12:48.543Z,24.13
2022-11-16T00:13:18.503Z,24.11
2022-11-16T00:13:48.502Z,24.10
2022-11-16T00:14:18.471Z,24.08
2022-11-16T00:14:48.443Z,24.08
2022-11-16T00:15:18.629Z,24.07
2022-11-16T00:15:48.588Z,24.07
2022-11-16T00:16:18.564Z,24.10
2022-11-16T00:16:48.533Z,24.13
2022-11-16T00:17:18.509Z,24.16
2022-11-16T00:17:48.484Z,24.18
2022-11-16T00:18:18.452Z,24.18
2022-11-16T00:18:48.442Z,24.15
2022-11-16T00:19:18.410Z,24.18
2022-11-16T00:19:48.385Z,24.18
2022-11-16T00:20:18.348Z,24.16
2022-11-16T00:20:48.348Z,24.16
2022-11-16T00:21:18.305Z,24.16
2022-11-16T00:21:48.280Z,24.16
2022-11-16T00:22:18.252Z,24.15
2022-11-16T00:22:48.226Z,24.15
2022-11-16T00:23:18.197Z,24.13
2022-11-16T00:23:48.179Z,24.15
2022-11-16T00:24:18.182Z,24.16
2022-11-16T00:24:48.190Z,24.15
2022-11-16T00:25:18.155Z,24.19
2022-11-16T00:25:48.112Z,24.18
2022-11-16T00:26:18.088Z,24.19
2022-11-16T00:26:48.044Z,24.16
2022-11-16T00:27:18.006Z,24.16
2022-11-16T00:27:47.993Z,24.16
2022-11-16T00:28:17.957Z,24.13
2022-11-16T00:28:47.927Z,24.11
2022-11-16T00:29:17.892Z,24.11
2022-11-16T00:29:47.867Z,24.13
2022-11-16T00:30:17.831Z,24.13
2022-11-16T00:30:47.888Z,24.11
2022-11-16T00:31:17.856Z,24.16
2022-11-16T00:31:47.836Z,24.18
2022-11-16T00:32:17.844Z,24.19
2022-11-16T00:32:47.862Z,24.18
2022-11-16T00:33:17.863Z,24.19
2022-11-16T00:33:47.836Z,24.18
2022-11-16T00:34:17.832Z,24.16
2022-11-16T00:34:47.809Z,24.16
2022-11-16T00:35:17.779Z,24.18
2022-11-16T00:35:47.742Z,24.18
2022-11-16T00:36:17.725Z,24.22
2022-11-16T00:36:47.700Z,24.21
2022-11-16T00:37:17.670Z,24.23
2022-11-16T00:37:47.667Z,24.22
2022-11-16T00:38:17.640Z,24.21
2022-11-16T00:38:47.614Z,24.19
2022-11-16T00:39:17.577Z,24.22
2022-11-16T00:39:47.580Z,24.22
2022-11-16T00:40:17.596Z,24.22
2022-11-16T00:40:47.578Z,24.22
2022-11-16T00:41:17.562Z,24.22
2022-11-16T00:41:47.533Z,24.23
2022-11-16T00:42:17.506Z,24.22
2022-11-16T00:42:47.513Z,24.25
2022-11-16T00:43:17.470Z,24.25
2022-11-16T00:43:47.442Z,24.22
2022-11-16T00:44:17.412Z,24.25
2022-11-16T00:44:47.374Z,24.23
2022-11-16T00:45:17.347Z,24.25
2022-11-16T00:45:47.311Z,24.22
2022-11-16T00:46:17.327Z,24.21
2022-11-16T00:46:47.295Z,24.21
2022-11-16T00:47:17.285Z,24.21
2022-11-16T00:47:47.275Z,24.21
2022-11-16T00:48:17.249Z,24.23
2022-11-16T00:48:47.228Z,24.25
2022-11-16T00:49:17.195Z,24.26
2022-11-16T00:49:47.166Z,24.26
2022-11-16T00:50:17.144Z,24.26
2022-11-16T00:50:47.162Z,24.25
2022-11-16T00:51:17.177Z,24.25
2022-11-16T00:51:47.154Z,24.26
2022-11-16T00:52:17.156Z,24.25
2022-11-16T00:52:47.176Z,24.23
2022-11-16T00:53:17.149Z,24.25
2022-11-16T00:53:47.124Z,24.26
2022-11-16T00:54:17.096Z,24.28
2022-11-16T00:54:47.058Z,24.28
2022-11-16T00:55:17.029Z,24.26
2022-11-16T00:55:46.997Z,24.23
2022-11-16T00:56:16.966Z,24.22
2022-11-16T00:56:46.941Z,24.22
2022-11-16T00:57:16.910Z,24.22
2022-11-16T00:57:46.883Z,24.22
2022-11-16T00:58:16.892Z,24.23
2022-11-16T00:58:46.854Z,24.25
2022-11-16T00:59:16.825Z,24.26
2022-11-16T00:59:46.821Z,24.23
2022-11-16T01:00:16.820Z,24.26
2022-11-16T01:00:46.784Z,24.26
2022-11-16T01:01:16.855Z,24.28
2022-11-16T01:01:46.959Z,24.26
2022-11-16T01:02:16.976Z,24.28
2022-11-16T01:02:46.950Z,24.26
2022-11-16T01:03:16.931Z,24.28
2022-11-16T01:03:46.914Z,24.26
2022-11-16T01:04:16.887Z,24.29
2022-11-16T01:04:46.872Z,24.26
2022-11-16T01:05:16.844Z,24.25
2022-11-16T01:05:46.819Z,24.26
2022-11-16T01:06:16.836Z,24.25
2022-11-16T01:06:46.920Z,24.23
2022-11-16T01:07:16.980Z,24.22
2022-11-16T01:07:47.055Z,24.23
2022-11-16T01:08:17.077Z,24.23
2022-11-16T01:08:47.048Z,24.25
2022-11-16T01:09:17.020Z,24.25
2022-11-16T01:09:47.010Z,24.25
2022-11-16T01:10:16.985Z,24.26
2022-11-16T01:10:46.957Z,24.23
2022-11-16T01:11:16.933Z,24.25
2022-11-16T01:11:46.909Z,24.23
2022-11-16T01:12:16.887Z,24.23
2022-11-16T01:12:46.854Z,24.25
2022-11-16T01:13:16.824Z,24.26
2022-11-16T01:13:46.800Z,24.23
2022-11-16T01:14:16.772Z,24.28
2022-11-16T01:14:46.762Z,24.26
2022-11-16T01:15:16.721Z,24.25
2022-11-16T01:15:46.733Z,24.25
2022-11-16T01:16:16.704Z,24.28
2022-11-16T01:16:46.684Z,24.26
2022-11-16T01:17:16.693Z,24.26
2022-11-16T01:17:46.665Z,24.23
2022-11-16T01:18:16.628Z,24.25
2022-11-16T01:18:46.602Z,24.25
2022-11-16T01:19:16.563Z,24.23
2022-11-16T01:19:46.537Z,24.25
2022-11-16T01:20:16.507Z,24.25
2022-11-16T01:20:46.507Z,24.23
2022-11-16T01:21:16.517Z,24.25
2022-11-16T01:21:46.493Z,24.26
2022-11-16T01:22:16.473Z,24.28
2022-11-16T01:22:46.460Z,24.26
2022-11-16T01:23:16.432Z,24.31
2022-11-16T01:23:46.402Z,24.29
2022-11-16T01:24:16.427Z,24.29
2022-11-16T01:24:46.399Z,24.28
2022-11-16T01:25:16.402Z,24.29
2022-11-16T01:25:46.387Z,24.28
2022-11-16T01:26:16.378Z,24.31
2022-11-16T01:26:46.342Z,24.29
2022-11-16T01:27:16.334Z,24.29
2022-11-16T01:27:46.299Z,24.26
2022-11-16T01:28:16.323Z,24.26
2022-11-16T01:28:46.293Z,24.22
2022-11-16T01:29:16.272Z,24.22
2022-11-16T01:29:46.246Z,24.22
2022-11-16T01:30:16.202Z,24.23
2022-11-16T01:30:46.182Z,24.23
2022-11-16T01:31:16.156Z,24.26
2022-11-16T01:31:46.128Z,24.26
2022-11-16T01:32:16.091Z,24.26
2022-11-16T01:32:46.088Z,24.26
2022-11-16T01:33:16.061Z,24.29
2022-11-16T01:33:46.023Z,24.28
2022-11-16T01:34:15.988Z,24.29
2022-11-16T01:34:45.951Z,24.29
2022-11-16T01:35:15.917Z,24.28
2022-11-16T01:35:45.886Z,24.26
2022-11-16T01:36:15.864Z,24.28
2022-11-16T01:36:45.833Z,24.25
2022-11-16T01:37:15.829Z,24.23
2022-11-16T01:37:45.802Z,24.25
2022-11-16T01:38:15.768Z,24.22
2022-11-16T01:38:45.873Z,24.21
2022-11-16T01:39:15.907Z,24.22
2022-11-16T01:39:45.876Z,24.23
2022-11-16T01:40:15.839Z,24.23
2022-11-16T01:40:45.812Z,24.25
2022-11-16T01:41:15.794Z,24.23
2022-11-16T01:41:45.767Z,24.25
2022-11-16T01:42:15.739Z,24.25
2022-11-16T01:42:45.710Z,24.28
2022-11-16T01:43:15.677Z,24.31
2022-11-16T01:43:45.686Z,24.28
2022-11-16T01:44:15.691Z,24.26
2022-11-16T01:44:45.669Z,24.26
2022-11-16T01:45:15.639Z,24.28
2022-11-16T01:45:45.612Z,24.26
2022-11-16T01:46:15.584Z,24.26
2022-11-16T01:46:45.562Z,24.25
2022-11-16T01:47:15.532Z,24.28
2022-11-16T01:47:45.512Z,24.25
2022-11-16T01:48:15.574Z,24.28
2022-11-16T01:48:45.718Z,24.29
2022-11-16T01:49:15.712Z,24.33
2022-11-16T01:49:45.703Z,24.31
2022-11-16T01:50:15.676Z,24.34
2022-11-16T01:50:45.668Z,24.33
2022-11-16T01:51:15.635Z,24.29
2022-11-16T01:51:45.604Z,24.29
2022-11-16T01:52:15.570Z,24.29
2022-11-16T01:52:45.554Z,24.29
2022-11-16T01:53:15.536Z,24.34
2022-11-16T01:53:45.621Z,24.34
2022-11-16T01:54:15.601Z,24.33
2022-11-16T01:54:45.575Z,24.34
2022-11-16T01:55:15.866Z,24.36
2022-11-16T01:55:46.005Z,24.33
2022-11-16T01:56:17.859Z,24.29
2022-11-16T01:56:49.341Z,24.29
2022-11-16T01:57:20.746Z,24.28
2022-11-16T01:57:58.594Z,24.28
2022-11-16T01:58:28.558Z,24.25
2022-11-16T01:58:58.596Z,24.25
2022-11-16T01:59:28.578Z,24.25
2022-11-16T01:59:58.597Z,24.23
2022-11-16T02:00:28.577Z,24.28
2022-11-16T02:00:58.655Z,24.28
2022-11-16T02:01:28.799Z,24.31
2022-11-16T02:01:58.804Z,24.29
2022-11-16T02:02:28.805Z,24.31
2022-11-16T02:02:58.803Z,24.28
2022-11-16T02:03:28.824Z,24.29
2022-11-16T02:03:58.801Z,24.29
2022-11-16T02:04:28.761Z,24.29
2022-11-16T02:04:58.753Z,24.31
2022-11-16T02:05:28.715Z,24.31
2022-11-16T02:05:58.708Z,24.33
2022-11-16T02:06:28.683Z,24.31
2022-11-16T02:06:58.677Z,24.29
2022-11-16T02:07:28.697Z,24.29
2022-11-16T02:07:58.689Z,24.33
2022-11-16T02:08:28.683Z,24.33
2022-11-16T02:08:58.665Z,24.34
2022-11-16T02:09:28.672Z,24.34
2022-11-16T02:09:58.644Z,24.31
2022-11-16T02:10:28.611Z,24.33
2022-11-16T02:10:58.604Z,24.29
2022-11-16T02:11:28.575Z,24.31
2022-11-16T02:11:58.541Z,24.34
2022-11-16T02:12:28.511Z,24.34
2022-11-16T02:12:58.484Z,24.33
2022-11-16T02:13:28.452Z,24.33
2022-11-16T02:13:58.664Z,24.31
2022-11-16T02:14:28.630Z,24.29
2022-11-16T02:14:58.621Z,24.28
2022-11-16T02:15:28.584Z,24.26
2022-11-16T02:15:58.550Z,24.25
2022-11-16T02:16:28.521Z,24.26
2022-11-16T02:16:58.493Z,24.31
2022-11-16T02:17:28.456Z,24.33
2022-11-16T02:17:58.470Z,24.33
2022-11-16T02:18:28.441Z,24.34
2022-11-16T02:18:58.441Z,24.31
2022-11-16T02:19:28.416Z,24.34
2022-11-16T02:19:58.421Z,24.33
2022-11-16T02:20:28.387Z,24.31
2022-11-16T02:20:58.358Z,24.31
2022-11-16T02:21:28.334Z,24.33
2022-11-16T02:21:58.342Z,24.34
2022-11-16T02:22:28.317Z,24.34
2022-11-16T02:22:58.280Z,24.33
2022-11-16T02:23:28.257Z,24.36
2022-11-16T02:23:58.266Z,24.34
2022-11-16T02:24:28.272Z,24.34
2022-11-16T02:24:58.257Z,24.33
2022-11-16T02:25:28.232Z,24.36
2022-11-16T02:25:58.196Z,24.34
2022-11-16T02:26:28.158Z,24.33
2022-11-16T02:26:58.141Z,24.29
2022-11-16T02:27:28.115Z,24.33
2022-11-16T02:27:58.096Z,24.34
2022-11-16T02:28:28.072Z,24.37
2022-11-16T02:28:58.089Z,24.36
2022-11-16T02:29:28.071Z,24.36
2022-11-16T02:29:58.069Z,24.37
2022-11-16T02:30:28.034Z,24.34
2022-11-16T02:30:58.015Z,24.34
2022-11-16T02:31:27.989Z,24.34
2022-11-16T02:31:57.962Z,24.34
2022-11-16T02:32:27.925Z,24.37
2022-11-16T02:32:57.887Z,24.36
2022-11-16T02:33:27.859Z,24.38
2022-11-16T02:33:57.824Z,24.40
2022-11-16T02:34:27.853Z,24.43
2022-11-16T02:34:57.832Z,24.41
2022-11-16T02:35:27.826Z,24.40
2022-11-16T02:35:57.798Z,24.38
2022-11-16T02:36:27.763Z,24.40
2022-11-16T02:36:57.765Z,24.38
2022-11-16T02:37:27.743Z,24.41
2022-11-16T02:37:57.708Z,24.38
2022-11-16T02:38:27.684Z,24.37
2022-11-16T02:38:57.655Z,24.36
2022-11-16T02:39:27.634Z,24.38
2022-11-16T02:39:57.600Z,24.41
2022-11-16T02:40:27.569Z,24.45
2022-11-16T02:40:57.540Z,24.43
2022-11-16T02:41:27.499Z,24.41
2022-11-16T02:41:57.474Z,24.37
2022-11-16T02:42:27.450Z,24.37
2022-11-16T02:42:57.424Z,24.33
2022-11-16T02:43:27.385Z,24.33
2022-11-16T02:43:57.354Z,24.36
2022-11-16T02:44:27.332Z,24.36
2022-11-16T02:44:57.297Z,24.37
2022-11-16T02:45:27.272Z,24.40
2022-11-16T02:45:57.284Z,24.40
2022-11-16T02:46:27.265Z,24.43
2022-11-16T02:46:57.232Z,24.40
2022-11-16T02:47:27.204Z,24.40
2022-11-16T02:47:57.184Z,24.40
2022-11-16T02:48:27.147Z,24.43
2022-11-16T02:48:57.110Z,24.40
2022-11-16T02:49:27.109Z,24.40
2022-11-16T02:49:57.098Z,24.40
2022-11-16T02:50:27.057Z,24.41
2022-11-16T02:50:57.030Z,24.40
2022-11-16T02:51:27.007Z,24.38
2022-11-16T02:51:56.976Z,24.37
2022-11-16T02:52:26.948Z,24.37
2022-11-16T02:52:56.923Z,24.37
2022-11-16T02:53:26.897Z,24.38
2022-11-16T02:53:56.869Z,24.38
2022-11-16T02:54:26.852Z,24.37
2022-11-16T02:54:56.814Z,24.40
2022-11-16T02:55:26.785Z,24.41
2022-11-16T02:55:56.758Z,24.41
2022-11-16T02:56:26.738Z,24.41
2022-11-16T02:56:56.701Z,24.40
2022-11-16T02:57:26.677Z,24.38
2022-11-16T02:57:56.666Z,24.38
2022-11-16T02:58:26.629Z,24.36
2022-11-16T02:58:56.593Z,24.36
2022-11-16T02:59:26.598Z,24.41
2022-11-16T02:59:56.566Z,24.41
2022-11-16T03:00:26.559Z,24.41
2022-11-16T03:00:56.566Z,24.43
2022-11-16T03:01:26.580Z,24.43
2022-11-16T03:01:56.585Z,24.41
2022-11-16T03:02:26.557Z,24.44
2022-11-16T03:02:56.529Z,24.44
2022-11-16T03:03:26.494Z,24.47
2022-11-16T03:03:56.457Z,24.45
2022-11-16T03:04:26.447Z,24.45
2022-11-16T03:04:56.416Z,24.45
2022-11-16T03:05:26.427Z,24.45
2022-11-16T03:05:56.392Z,24.44
2022-11-16T03:06:26.396Z,24.41
2022-11-16T03:06:56.447Z,24.41
2022-11-16T03:07:26.479Z,24.41
2022-11-16T03:07:56.504Z,24.38
2022-11-16T03:08:26.474Z,24.40
2022-11-16T03:08:56.466Z,24.41
2022-11-16T03:09:26.451Z,24.41
2022-11-16T03:09:56.415Z,24.41
2022-11-16T03:10:26.395Z,24.41
2022-11-16T03:10:56.362Z,24.38
2022-11-16T03:11:26.344Z,24.38
2022-11-16T03:11:56.346Z,24.40
2022-11-16T03:12:26.310Z,24.38
2022-11-16T03:12:56.292Z,24.37
2022-11-16T03:13:26.256Z,24.43
2022-11-16T03:13:56.216Z,24.43
2022-11-16T03:14:26.187Z,24.41
2022-11-16T03:14:56.288Z,24.38
2022-11-16T03:15:26.271Z,24.40
2022-11-16T03:15:56.243Z,24.40
2022-11-16T03:16:26.215Z,24.40
2022-11-16T03:16:56.178Z,24.38
2022-11-16T03:17:26.150Z,24.40
2022-11-16T03:17:56.119Z,24.41
2022-11-16T03:18:26.089Z,24.44
2022-11-16T03:18:56.054Z,24.45
2022-11-16T03:19:26.032Z,24.48
2022-11-16T03:19:56.009Z,24.51
2022-11-16T03:20:26.005Z,24.51
2022-11-16T03:20:56.021Z,24.48
2022-11-16T03:21:26.002Z,24.45
2022-11-16T03:21:55.975Z,24.45
2022-11-16T03:22:25.939Z,24.43
2022-11-16T03:22:55.924Z,24.43
2022-11-16T03:23:25.892Z,24.44
2022-11-16T03:23:55.855Z,24.44
2022-11-16T03:24:25.829Z,24.43
2022-11-16T03:24:55.816Z,24.43
2022-11-16T03:25:25.797Z,24.41
2022-11-16T03:25:55.801Z,24.38
2022-11-16T03:26:25.768Z,24.40
2022-11-16T03:26:55.729Z,24.41
2022-11-16T03:27:25.688Z,24.41
2022-11-16T03:27:55.652Z,24.40
2022-11-16T03:28:25.627Z,24.41
2022-11-16T03:28:55.598Z,24.41
2022-11-16T03:29:25.558Z,24.41
2022-11-16T03:29:55.533Z,24.40
2022-11-16T03:30:25.530Z,24.40
2022-11-16T03:30:55.490Z,24.40
2022-11-16T03:31:25.461Z,24.41
2022-11-16T03:31:55.420Z,24.43
2022-11-16T03:32:25.394Z,24.43
2022-11-16T03:32:55.390Z,24.41
2022-11-16T03:33:25.354Z,24.41
2022-11-16T03:33:55.327Z,24.41
2022-11-16T03:34:25.299Z,24.41
2022-11-16T03:34:55.265Z,24.40
2022-11-16T03:35:25.252Z,24.37
2022-11-16T03:35:55.211Z,24.36
2022-11-16T03:36:25.200Z,24.38
2022-11-16T03:36:55.167Z,24.36
2022-11-16T03:37:25.142Z,24.33
2022-11-16T03:37:55.105Z,24.34
2022-11-16T03:38:25.086Z,24.38
2022-11-16T03:38:55.059Z,24.40
2022-11-16T03:39:25.030Z,24.40
2022-11-16T03:39:54.994Z,24.40
2022-11-16T03:40:24.993Z,24.40
2022-11-16T03:40:54.955Z,24.38
2022-11-16T03:41:24.931Z,24.38
2022-11-16T03:41:54.903Z,24.40
2022-11-16T03:42:24.883Z,24.40
2022-11-16T03:42:54.838Z,24.38
2022-11-16T03:43:24.811Z,24.38
2022-11-16T03:43:54.784Z,24.41
2022-11-16T03:44:24.755Z,24.47
2022-11-16T03:44:54.730Z,24.45
2022-11-16T03:45:24.748Z,24.44
2022-11-16T03:45:54.721Z,24.41
2022-11-16T03:46:24.678Z,24.45
2022-11-16T03:46:54.659Z,24.45
2022-11-16T03:47:24.671Z,24.45
2022-11-16T03:47:54.629Z,24.47
2022-11-16T03:48:24.601Z,24.48
2022-11-16T03:48:54.574Z,24.48
2022-11-16T03:49:24.539Z,24.48
2022-11-16T03:49:54.509Z,24.45
2022-11-16T03:50:24.484Z,24.41
2022-11-16T03:50:54.491Z,24.40
2022-11-16T03:51:24.470Z,24.43
2022-11-16T03:51:54.479Z,24.43
2022-11-16T03:52:24.447Z,24.41
2022-11-16T03:52:54.413Z,24.44
2022-11-16T03:53:24.387Z,24.44
2022-11-16T03:53:54.381Z,24.38
2022-11-16T03:54:24.392Z,24.38
2022-11-16T03:54:54.384Z,24.36
2022-11-16T03:55:24.357Z,24.36
2022-11-16T03:55:54.330Z,24.34
2022-11-16T03:56:24.305Z,24.33
2022-11-16T03:56:54.301Z,24.31
2022-11-16T03:57:24.269Z,24.33
2022-11-16T03:57:54.256Z,24.38
2022-11-16T03:58:24.221Z,24.43
2022-11-16T03:58:54.194Z,24.43
2022-11-16T03:59:24.156Z,24.44
2022-11-16T03:59:54.131Z,24.45
2022-11-16T04:00:24.101Z,24.44
2022-11-16T04:00:54.190Z,24.41
2022-11-16T04:01:24.282Z,24.40
2022-11-16T04:01:54.279Z,24.40
2022-11-16T04:02:24.244Z,24.41
2022-11-16T04:02:54.237Z,24.40
2022-11-16T04:03:24.258Z,24.38
2022-11-16T04:03:54.440Z,24.36
2022-11-16T04:04:24.581Z,24.36
2022-11-16T04:04:54.543Z,24.36
2022-11-16T04:05:24.520Z,24.36
2022-11-16T04:05:54.484Z,24.36
2022-11-16T04:06:24.451Z,24.37
2022-11-16T04:06:54.484Z,24.37
2022-11-16T04:07:24.687Z,24.41
2022-11-16T04:07:54.741Z,24.43
2022-11-16T04:08:24.724Z,24.44
2022-11-16T04:08:54.693Z,24.40
2022-11-16T04:09:24.698Z,24.44
2022-11-16T04:09:54.708Z,24.43
2022-11-16T04:10:24.670Z,24.45
2022-11-16T04:10:54.634Z,24.45
2022-11-16T04:11:24.608Z,24.48
2022-11-16T04:11:54.618Z,24.48
2022-11-16T04:12:24.584Z,24.48
2022-11-16T04:12:54.561Z,24.48
2022-11-16T04:13:24.545Z,24.48
2022-11-16T04:13:54.506Z,24.45
2022-11-16T04:14:24.480Z,24.48
2022-11-16T04:14:54.454Z,24.48
2022-11-16T04:15:24.424Z,24.48
2022-11-16T04:15:54.393Z,24.44
2022-11-16T04:16:24.440Z,24.43
2022-11-16T04:16:54.454Z,24.38
2022-11-16T04:17:24.428Z,24.40
2022-11-16T04:17:54.402Z,24.43
2022-11-16T04:18:24.373Z,24.44
2022-11-16T04:18:54.338Z,24.44
2022-11-16T04:19:24.309Z,24.43
2022-11-16T04:19:58.179Z,24.43
2022-11-16T04:20:28.426Z,24.44
2022-11-16T04:20:58.388Z,24.43
2022-11-16T04:21:28.369Z,24.43
2022-11-16T04:21:58.355Z,24.45
2022-11-16T04:22:28.348Z,24.44
2022-11-16T04:22:58.306Z,24.44
2022-11-16T04:23:28.283Z,24.44
2022-11-16T04:23:58.285Z,24.44
2022-11-16T04:24:28.295Z,24.44
2022-11-16T04:24:58.268Z,24.41
2022-11-16T04:25:28.230Z,24.41
2022-11-16T04:25:58.195Z,24.43
2022-11-16T04:26:28.216Z,24.41
2022-11-16T04:26:59.196Z,24.43
2022-11-16T04:27:29.157Z,24.41
2022-11-16T04:27:59.140Z,24.38
2022-11-16T04:28:29.161Z,24.36
2022-11-16T04:28:59.128Z,24.34
2022-11-16T04:29:29.105Z,24.36
2022-11-16T04:29:59.075Z,24.37
2022-11-16T04:30:29.050Z,24.38
2022-11-16T04:30:59.023Z,24.38
2022-11-16T04:31:28.987Z,24.34
2022-11-16T04:31:58.947Z,24.34
2022-11-16T04:32:28.965Z,24.31
2022-11-16T04:32:58.947Z,24.33
2022-11-16T04:33:28.915Z,24.37
2022-11-16T04:33:58.894Z,24.40
2022-11-16T04:34:28.868Z,24.37
2022-11-16T04:34:58.852Z,24.38
2022-11-16T04:35:28.825Z,24.38
2022-11-16T04:35:58.800Z,24.37
2022-11-16T04:36:28.771Z,24.37
2022-11-16T04:36:58.752Z,24.41
2022-11-16T04:37:28.719Z,24.44
2022-11-16T04:37:58.714Z,24.41
2022-11-16T04:38:28.716Z,24.37
2022-11-16T04:38:58.711Z,24.36
2022-11-16T04:39:28.712Z,24.38
2022-11-16T04:39:58.687Z,24.40
2022-11-16T04:40:28.648Z,24.40
2022-11-16T04:40:58.621Z,24.40
2022-11-16T04:41:28.592Z,24.41
2022-11-16T04:41:58.578Z,24.41
2022-11-16T04:42:28.542Z,24.40
2022-11-16T04:42:58.528Z,24.38
2022-11-16T04:43:28.532Z,24.40
2022-11-16T04:43:58.502Z,24.40
2022-11-16T04:44:30.052Z,24.37
2022-11-16T04:45:00.099Z,24.36
2022-11-16T04:45:30.069Z,24.37
2022-11-16T04:46:00.081Z,24.38
2022-11-16T04:46:30.052Z,24.40
2022-11-16T04:47:00.023Z,24.37
2022-11-16T04:47:29.987Z,24.36
2022-11-16T04:47:59.997Z,24.34
2022-11-16T04:48:30.307Z,24.37
2022-11-16T04:49:00.306Z,24.40
2022-11-16T04:49:30.270Z,24.41
2022-11-16T04:50:00.233Z,24.37
2022-11-16T04:50:30.196Z,24.38
2022-11-16T04:51:00.187Z,24.40
2022-11-16T04:51:30.153Z,24.40
2022-11-16T04:52:00.130Z,24.38
2022-11-16T04:52:30.105Z,24.38
2022-11-16T04:53:00.120Z,24.38
2022-11-16T04:53:30.089Z,24.38
2022-11-16T04:54:00.092Z,24.41
2022-11-16T04:54:30.064Z,24.40
2022-11-16T04:55:00.053Z,24.40
2022-11-16T04:55:30.057Z,24.38
2022-11-16T04:56:00.971Z,24.41
2022-11-16T04:56:31.159Z,24.43
2022-11-16T04:57:01.141Z,24.41
2022-11-16T04:57:31.136Z,24.41
2022-11-16T04:58:01.097Z,24.43
2022-11-16T04:58:31.349Z,24.44
2022-11-16T04:59:01.599Z,24.44
2022-11-16T04:59:31.569Z,24.45
2022-11-16T05:00:01.543Z,24.45
2022-11-16T05:00:31.515Z,24.44
2022-11-16T05:01:01.549Z,24.43
2022-11-16T05:01:31.638Z,24.38
2022-11-16T05:02:01.659Z,24.36
2022-11-16T05:02:31.652Z,24.33
2022-11-16T05:03:02.068Z,24.31
2022-11-16T05:03:32.089Z,24.36
2022-11-16T05:04:02.058Z,24.38
2022-11-16T05:04:32.025Z,24.40
2022-11-16T05:05:01.983Z,24.34
2022-11-16T05:05:31.948Z,24.33
2022-11-16T05:06:01.941Z,24.34
2022-11-16T05:06:31.906Z,24.34
2022-11-16T05:07:01.944Z,24.31
2022-11-16T05:07:32.052Z,24.33
2022-11-16T05:08:02.087Z,24.31
2022-11-16T05:08:32.423Z,24.38
2022-11-16T05:09:02.629Z,24.40
2022-11-16T05:09:32.589Z,24.41
2022-11-16T05:10:02.552Z,24.38
2022-11-16T05:10:32.516Z,24.38
2022-11-16T05:11:02.479Z,24.37
2022-11-16T05:11:32.452Z,24.38
2022-11-16T05:12:02.412Z,24.37
2022-11-16T05:12:32.406Z,24.37
2022-11-16T05:13:02.390Z,24.34
2022-11-16T05:13:32.351Z,24.34
2022-11-16T05:14:02.329Z,24.34
2022-11-16T05:14:32.291Z,24.34
2022-11-16T05:15:02.263Z,24.37
2022-11-16T05:15:32.228Z,24.38
2022-11-16T05:16:02.210Z,24.33
2022-11-16T05:16:32.182Z,24.34
2022-11-16T05:17:02.151Z,24.33
2022-11-16T05:17:32.106Z,24.33
2022-11-16T05:18:02.100Z,24.37
2022-11-16T05:18:32.438Z,24.40
2022-11-16T05:19:02.621Z,24.40
2022-11-16T05:19:32.582Z,24.41
2022-11-16T05:20:02.556Z,24.44
2022-11-16T05:20:32.530Z,24.43
2022-11-16T05:21:02.509Z,24.40
2022-11-16T05:21:32.484Z,24.37
2022-11-16T05:22:02.458Z,24.34
2022-11-16T05:22:32.430Z,24.31
2022-11-16T05:23:02.456Z,24.33
2022-11-16T05:23:32.416Z,24.41
2022-11-16T05:24:02.414Z,24.38
2022-11-16T05:24:32.378Z,24.38
2022-11-16T05:25:02.361Z,24.34
2022-11-16T05:25:36.446Z,24.36
2022-11-16T05:26:07.039Z,24.34
2022-11-16T05:26:37.001Z,24.33
2022-11-16T05:27:06.973Z,24.33
2022-11-16T05:27:36.946Z,24.37
2022-11-16T05:28:06.935Z,24.40
2022-11-16T05:28:37.275Z,24.45
2022-11-16T05:29:07.485Z,24.44
2022-11-16T05:29:37.456Z,24.47
2022-11-16T05:30:07.459Z,24.44
2022-11-16T05:30:37.431Z,24.44
2022-11-16T05:31:07.417Z,24.43
2022-11-16T05:31:40.453Z,24.47
2022-11-16T05:32:10.668Z,24.44
2022-11-16T05:32:40.641Z,24.44
2022-11-16T05:33:10.615Z,24.41
2022-11-16T05:33:40.586Z,24.41
2022-11-16T05:34:10.563Z,24.40
2022-11-16T05:34:40.542Z,24.40
2022-11-16T05:35:10.512Z,24.38
2022-11-16T05:35:40.486Z,24.41
2022-11-16T05:36:10.459Z,24.45
2022-11-16T05:36:40.438Z,24.51
2022-11-16T05:37:10.402Z,24.55
2022-11-16T05:37:40.374Z,24.60
2022-11-16T05:38:10.378Z,24.60
2022-11-16T05:38:40.379Z,24.63
2022-11-16T05:39:10.411Z,24.58
2022-11-16T05:39:40.398Z,24.55
2022-11-16T05:40:10.366Z,24.52
2022-11-16T05:40:40.332Z,24.55
2022-11-16T05:41:10.316Z,24.56
2022-11-16T05:41:40.289Z,24.62
2022-11-16T05:42:10.260Z,24.63
2022-11-16T05:42:40.241Z,24.68
2022-11-16T05:43:10.206Z,24.66
2022-11-16T05:43:40.177Z,24.74
2022-11-16T05:44:10.152Z,24.74
2022-11-16T05:44:40.158Z,24.71
2022-11-16T05:45:10.120Z,24.70
2022-11-16T05:45:40.124Z,24.70
2022-11-16T05:46:10.117Z,24.70
2022-11-16T05:46:40.089Z,24.70
2022-11-16T05:47:10.076Z,24.74
2022-11-16T05:47:40.048Z,24.66
2022-11-16T05:48:10.023Z,24.74
2022-11-16T05:48:39.985Z,24.63
2022-11-16T05:49:09.951Z,24.60
2022-11-16T05:49:39.965Z,24.51
2022-11-16T05:50:09.927Z,24.37
2022-11-16T05:50:42.702Z,24.26
2022-11-16T05:51:13.119Z,24.13
2022-11-16T05:51:43.084Z,24.04
2022-11-16T05:52:13.075Z,24.04
2022-11-16T05:52:43.032Z,24.01
2022-11-16T05:53:12.995Z,24.03
2022-11-16T05:53:42.969Z,24.06
2022-11-16T05:54:12.969Z,24.08
2022-11-16T05:54:42.937Z,24.15
2022-11-16T05:55:12.902Z,24.18
2022-11-16T05:55:42.876Z,24.23
2022-11-16T05:56:12.926Z,24.19
2022-11-16T05:56:42.981Z,24.23
2022-11-16T05:57:12.975Z,24.26
2022-11-16T05:57:42.933Z,24.38
2022-11-16T05:58:12.895Z,24.40
2022-11-16T05:58:42.869Z,24.43
2022-11-16T05:59:16.458Z,24.41
2022-11-16T05:59:46.712Z,24.44
2022-11-16T06:00:16.687Z,24.52
2022-11-16T06:00:46.659Z,24.48
2022-11-16T06:01:16.631Z,24.52
2022-11-16T06:01:46.596Z,24.56
2022-11-16T06:02:16.577Z,24.62
2022-11-16T06:02:46.591Z,24.60
2022-11-16T06:03:16.619Z,24.60
2022-11-16T06:03:46.611Z,24.62
2022-11-16T06:04:16.576Z,24.47
2022-11-16T06:04:46.676Z,24.29
2022-11-16T06:05:16.640Z,24.37
2022-11-16T06:05:46.602Z,24.41
2022-11-16T06:06:16.567Z,24.44
2022-11-16T06:06:46.530Z,24.44
2022-11-16T06:07:16.611Z,24.43
2022-11-16T06:07:46.588Z,24.44
2022-11-16T06:08:16.603Z,24.48
2022-11-16T06:08:46.572Z,24.53
2022-11-16T06:09:16.544Z,24.53
2022-11-16T06:09:46.529Z,24.52
2022-11-16T06:10:16.500Z,24.51
2022-11-16T06:10:46.485Z,24.53
2022-11-16T06:11:16.739Z,24.55
2022-11-16T06:11:46.716Z,24.62
2022-11-16T06:12:16.694Z,24.65
2022-11-16T06:12:46.663Z,24.68
2022-11-16T06:13:16.633Z,24.71
2022-11-16T06:13:46.610Z,24.75
2022-11-16T06:14:16.596Z,24.79
2022-11-16T06:14:46.561Z,24.79
2022-11-16T06:15:16.535Z,24.81
2022-11-16T06:15:51.571Z,24.82
2022-11-16T06:16:21.807Z,24.82
2022-11-16T06:16:51.769Z,24.76
2022-11-16T06:17:21.766Z,24.76
2022-11-16T06:17:51.741Z,24.78
2022-11-16T06:18:21.703Z,24.78
2022-11-16T06:18:51.685Z,24.78
2022-11-16T06:19:21.672Z,24.82
2022-11-16T06:19:51.638Z,24.82
2022-11-16T06:20:21.638Z,24.82
2022-11-16T06:20:51.662Z,24.85
2022-11-16T06:21:21.638Z,24.89
2022-11-16T06:21:51.625Z,24.90
2022-11-16T06:22:21.595Z,24.85
2022-11-16T06:22:51.584Z,24.81
2022-11-16T06:23:21.548Z,24.82
2022-11-16T06:23:51.519Z,24.85
2022-11-16T06:24:21.491Z,24.85
2022-11-16T06:24:51.455Z,24.89
2022-11-16T06:25:21.420Z,24.89
2022-11-16T06:25:51.408Z,24.90
2022-11-16T06:26:21.379Z,24.89
2022-11-16T06:26:51.353Z,24.85